createdAt,value
2018-01-02T00:01:18.226Z,3.30
2018-01-02T00:03:44.862Z,3.30
2018-01-02T00:06:11.619Z,3.30
2018-01-02T00:08:39.276Z,3.30
2018-01-02T00:11:05.903Z,3.30
2018-01-02T00:13:32.586Z,3.20
2018-01-02T00:15:59.244Z,3.10
2018-01-02T00:18:25.891Z,3.10
2018-01-02T00:20:52.556Z,3.10
2018-01-02T00:23:19.976Z,3.10
2018-01-02T00:25:46.623Z,3.10
2018-01-02T00:28:13.492Z,3.00
2018-01-02T00:30:40.148Z,3.00
2018-01-02T00:33:07.526Z,2.90
2018-01-02T00:35:35.116Z,2.90
2018-01-02T00:38:01.777Z,2.80
2018-01-02T00:40:28.466Z,2.80
2018-01-02T00:42:56.736Z,2.70
2018-01-02T00:45:24.171Z,2.70
2018-01-02T00:47:51.641Z,2.60
2018-01-02T00:50:18.346Z,2.60
2018-01-02T00:52:45.010Z,2.60
2018-01-02T00:55:11.663Z,2.50
2018-01-02T00:57:38.357Z,2.40
2018-01-02T01:00:05.015Z,2.40
2018-01-02T01:02:31.710Z,2.30
2018-01-02T01:04:59.136Z,2.20
2018-01-02T01:07:25.822Z,2.20
2018-01-02T01:09:53.228Z,2.10
2018-01-02T01:12:19.880Z,2.10
2018-01-02T01:14:46.549Z,2.00
2018-01-02T01:17:13.208Z,2.00
2018-01-02T01:19:40.629Z,2.00
2018-01-02T01:22:07.325Z,2.00
2018-01-02T01:24:34.006Z,2.00
2018-01-02T01:27:00.686Z,2.00
2018-01-02T01:29:28.104Z,2.00
2018-01-02T01:31:55.585Z,2.10
2018-01-02T01:34:22.321Z,2.00
2018-01-02T01:36:49.766Z,2.20
2018-01-02T01:39:16.422Z,2.20
2018-01-02T01:41:43.108Z,2.30
2018-01-02T01:44:10.505Z,2.40
2018-01-02T01:46:37.185Z,2.40
2018-01-02T01:49:03.840Z,2.40
2018-01-02T01:51:30.468Z,2.40
2018-01-02T01:53:57.189Z,2.50
2018-01-02T01:56:24.807Z,2.60
2018-01-02T01:58:52.199Z,2.60
2018-01-02T02:01:18.988Z,2.50
2018-01-02T02:03:45.642Z,2.50
2018-01-02T02:06:12.335Z,2.50
2018-01-02T02:08:39.024Z,2.50
2018-01-02T02:11:05.653Z,2.50
2018-01-02T02:13:32.322Z,2.50
2018-01-02T02:15:59.736Z,2.50
2018-01-02T02:18:26.390Z,2.40
2018-01-02T02:20:53.039Z,2.40
2018-01-02T02:23:19.816Z,2.30
2018-01-02T02:25:47.207Z,2.20
2018-01-02T02:28:14.692Z,2.20
2018-01-02T02:30:41.386Z,2.10
2018-01-02T02:33:08.053Z,2.10
2018-01-02T02:35:34.730Z,2.10
2018-01-02T02:38:01.395Z,2.00
2018-01-02T02:40:34.968Z,1.90
2018-01-02T02:43:01.660Z,1.80
2018-01-02T02:45:29.049Z,1.80
2018-01-02T02:47:55.733Z,1.80
2018-01-02T02:50:22.395Z,1.70
2018-01-02T02:52:49.803Z,1.70
2018-01-02T02:55:16.476Z,1.70
2018-01-02T02:57:43.112Z,1.60
2018-01-02T03:00:09.766Z,1.60
2018-01-02T03:02:36.456Z,1.60
2018-01-02T03:05:03.102Z,1.70
2018-01-02T03:07:29.767Z,1.70
2018-01-02T03:09:56.440Z,1.70
2018-01-02T03:12:23.901Z,1.70
2018-01-02T03:14:50.550Z,1.70
2018-01-02T03:17:18.935Z,1.70
2018-01-02T03:19:46.349Z,1.70
2018-01-02T03:22:13.002Z,1.70
2018-01-02T03:24:39.709Z,1.70
2018-01-02T03:27:06.372Z,1.70
2018-01-02T03:29:33.010Z,1.70
2018-01-02T03:31:59.718Z,1.60
2018-01-02T03:34:27.954Z,1.60
2018-01-02T03:36:54.626Z,1.60
2018-01-02T03:39:22.062Z,1.50
2018-01-02T03:41:48.726Z,1.50
2018-01-02T03:44:15.415Z,1.40
2018-01-02T03:46:42.093Z,1.40
2018-01-02T03:49:08.792Z,1.40
2018-01-02T03:51:35.449Z,1.30
2018-01-02T03:54:02.130Z,1.30
2018-01-02T03:56:28.784Z,1.30
2018-01-02T03:58:56.178Z,1.30
2018-01-02T04:01:23.919Z,1.30
2018-01-02T04:03:51.303Z,1.10
2018-01-02T04:06:17.942Z,1.10
2018-01-02T04:08:45.238Z,1.10
2018-01-02T04:11:12.634Z,1.10
2018-01-02T04:13:40.038Z,1.10
2018-01-02T04:16:06.705Z,1.10
2018-01-02T04:18:34.092Z,1.10
2018-01-02T04:21:00.804Z,1.10
2018-01-02T04:23:27.427Z,1.10
2018-01-02T04:25:54.078Z,1.00
2018-01-02T04:28:20.740Z,0.80
2018-01-02T04:30:47.374Z,0.80
2018-01-02T04:33:14.010Z,0.90
2018-01-02T04:35:40.689Z,0.90
2018-01-02T04:38:08.377Z,0.90
2018-01-02T04:40:35.122Z,0.90
2018-01-02T04:43:02.136Z,1.00
2018-01-02T04:45:28.769Z,1.00
2018-01-02T04:47:55.445Z,1.00
2018-01-02T04:50:22.192Z,0.90
2018-01-02T04:52:49.594Z,0.70
2018-01-02T04:55:16.262Z,0.70
2018-01-02T04:57:42.893Z,0.60
2018-01-02T05:00:09.544Z,0.60
2018-01-02T05:02:36.926Z,0.60
2018-01-02T05:05:04.337Z,0.60
2018-01-02T05:07:31.040Z,0.60
2018-01-02T05:09:58.484Z,0.50
2018-01-02T05:12:25.907Z,0.50
2018-01-02T05:14:52.592Z,0.50
2018-01-02T05:17:19.216Z,0.50
2018-01-02T05:19:45.912Z,0.50
2018-01-02T05:22:12.540Z,0.50
2018-01-02T05:24:39.934Z,0.60
2018-01-02T05:27:06.608Z,0.50
2018-01-02T05:29:33.267Z,0.60
2018-01-02T05:32:00.664Z,0.50
2018-01-02T05:34:27.330Z,0.50
2018-01-02T05:36:53.976Z,0.40
2018-01-02T05:39:20.648Z,0.40
2018-01-02T05:41:47.366Z,0.30
2018-01-02T05:44:14.036Z,0.30
2018-01-02T05:46:41.448Z,0.10
2018-01-02T05:49:08.214Z,0.10
2018-01-02T05:51:35.633Z,0.20
2018-01-02T05:54:02.337Z,0.20
2018-01-02T05:56:28.996Z,0.00
2018-01-02T05:58:56.390Z,0.00
2018-01-02T06:01:23.055Z,0.00
2018-01-02T06:03:49.712Z,0.10
2018-01-02T06:06:16.361Z,0.10
2018-01-02T06:08:43.025Z,0.10
2018-01-02T06:11:10.409Z,0.00
2018-01-02T06:13:37.058Z,0.00
2018-01-02T06:16:03.735Z,0.10
2018-01-02T06:18:30.405Z,0.20
2018-01-02T06:20:57.084Z,0.10
2018-01-02T06:23:23.763Z,0.10
2018-01-02T06:25:50.410Z,0.10
2018-01-02T06:28:17.107Z,0.10
2018-01-02T06:30:43.746Z,0.00
2018-01-02T06:33:10.441Z,0.10
2018-01-02T06:35:37.099Z,0.10
2018-01-02T06:38:04.508Z,0.20
2018-01-02T06:40:32.021Z,0.10
2018-01-02T06:42:59.453Z,0.20
2018-01-02T06:45:26.100Z,0.20
2018-01-02T06:47:52.748Z,0.10
2018-01-02T06:50:19.462Z,0.10
2018-01-02T06:52:47.003Z,0.10
2018-01-02T06:55:13.670Z,0.00
2018-01-02T06:57:40.312Z,0.20
2018-01-02T07:00:07.048Z,0.10
2018-01-02T07:02:33.693Z,0.20
2018-01-02T07:05:00.362Z,0.20
2018-01-02T07:07:27.916Z,0.30
2018-01-02T07:09:54.563Z,0.30
2018-01-02T07:12:21.210Z,0.30
2018-01-02T07:14:47.898Z,0.30
2018-01-02T07:17:14.542Z,0.30
2018-01-02T07:19:41.186Z,0.30
2018-01-02T07:22:07.879Z,0.20
2018-01-02T07:24:34.522Z,0.30
2018-01-02T07:27:01.973Z,0.40
2018-01-02T07:29:28.644Z,0.30
2018-01-02T07:31:55.314Z,0.30
2018-01-02T07:34:22.741Z,0.30
2018-01-02T07:36:49.466Z,0.30
2018-01-02T07:39:16.146Z,0.40
2018-01-02T07:41:43.576Z,0.60
2018-01-02T07:44:10.247Z,0.60
2018-01-02T07:46:37.040Z,0.60
2018-01-02T07:49:03.681Z,0.60
2018-01-02T07:51:30.361Z,0.60
2018-01-02T07:53:57.033Z,0.50
2018-01-02T07:56:24.463Z,0.60
2018-01-02T07:58:51.146Z,0.60
2018-01-02T08:01:17.841Z,0.60
2018-01-02T08:03:44.521Z,0.60
2018-01-02T08:06:11.957Z,0.70
2018-01-02T08:08:38.617Z,0.70
2018-01-02T08:11:06.040Z,0.70
2018-01-02T08:13:33.566Z,0.70
2018-01-02T08:16:00.251Z,0.70
2018-01-02T08:18:26.896Z,0.80
2018-01-02T08:20:53.578Z,0.90
2018-01-02T08:23:20.968Z,1.00
2018-01-02T08:25:47.599Z,1.00
2018-01-02T08:28:14.285Z,1.00
2018-01-02T08:30:40.958Z,1.10
2018-01-02T08:33:08.376Z,1.10
2018-01-02T08:35:35.830Z,1.10
2018-01-02T08:38:02.510Z,1.10
2018-01-02T08:40:29.915Z,1.30
2018-01-02T08:42:56.607Z,1.30
2018-01-02T08:45:23.284Z,1.40
2018-01-02T08:47:49.912Z,1.50
2018-01-02T08:50:17.326Z,1.70
2018-01-02T08:52:44.007Z,1.60
2018-01-02T08:55:11.393Z,1.90
2018-01-02T08:57:38.060Z,1.90
2018-01-02T09:00:04.709Z,1.90
2018-01-02T09:02:31.364Z,2.00
2018-01-02T09:04:58.074Z,2.10
2018-01-02T09:07:24.705Z,2.00
2018-01-02T09:09:51.411Z,2.10
2018-01-02T09:12:23.986Z,2.10
2018-01-02T09:14:50.648Z,2.30
2018-01-02T09:17:17.326Z,2.40
2018-01-02T09:19:43.991Z,2.50
2018-01-02T09:22:10.643Z,2.50
2018-01-02T09:24:37.328Z,2.70
2018-01-02T09:27:04.037Z,2.90
2018-01-02T09:29:30.704Z,3.00
2018-01-02T09:31:58.189Z,3.30
2018-01-02T09:34:24.850Z,3.30
2018-01-02T09:36:51.512Z,3.40
2018-01-02T09:39:18.214Z,3.60
2018-01-02T09:41:44.958Z,3.70
2018-01-02T09:44:11.638Z,3.80
2018-01-02T09:46:38.292Z,3.80
2018-01-02T09:49:04.997Z,3.80
2018-01-02T09:51:31.747Z,3.70
2018-01-02T09:53:58.452Z,3.70
2018-01-02T09:56:25.894Z,3.60
2018-01-02T09:58:52.570Z,3.60
2018-01-02T10:01:19.322Z,3.70
2018-01-02T10:03:46.024Z,3.80
2018-01-02T10:06:12.726Z,4.00
2018-01-02T10:08:39.403Z,3.90
2018-01-02T10:11:06.148Z,3.90
2018-01-02T10:13:32.809Z,3.90
2018-01-02T10:15:59.491Z,3.80
2018-01-02T10:18:26.189Z,4.00
2018-01-02T10:20:52.889Z,4.10
2018-01-02T10:23:19.555Z,4.10
2018-01-02T10:25:46.293Z,4.10
2018-01-02T10:28:12.927Z,4.00
2018-01-02T10:30:39.679Z,3.90
2018-01-02T10:33:06.373Z,3.80
2018-01-02T10:35:33.054Z,3.80
2018-01-02T10:37:59.771Z,3.70
2018-01-02T10:40:26.462Z,3.80
2018-01-02T10:42:53.106Z,3.90
2018-01-02T10:45:19.792Z,3.90
2018-01-02T10:47:46.464Z,4.00
2018-01-02T10:50:20.025Z,4.00
2018-01-02T10:52:47.489Z,3.90
2018-01-02T10:55:14.922Z,4.00
2018-01-02T10:57:41.583Z,4.00
2018-01-02T11:00:09.934Z,3.90
2018-01-02T11:02:36.936Z,3.90
2018-01-02T11:05:03.640Z,3.80
2018-01-02T11:07:30.909Z,3.60
2018-01-02T11:09:57.638Z,3.50
2018-01-02T11:12:30.391Z,3.60
2018-01-02T11:14:57.137Z,3.70
2018-01-02T11:17:23.810Z,3.70
2018-01-02T11:19:50.524Z,3.90
2018-01-02T11:22:17.202Z,4.10
2018-01-02T11:24:44.667Z,4.30
2018-01-02T11:27:11.738Z,4.50
2018-01-02T11:29:39.184Z,4.50
2018-01-02T11:32:06.599Z,4.60
2018-01-02T11:34:34.042Z,4.60
2018-01-02T11:37:00.698Z,4.80
2018-01-02T11:39:27.372Z,4.70
2018-01-02T11:41:54.041Z,5.00
2018-01-02T11:44:21.463Z,5.30
2018-01-02T11:46:48.906Z,5.30
2018-01-02T11:49:15.829Z,5.30
2018-01-02T11:51:42.505Z,5.50
2018-01-02T11:54:09.211Z,5.50
2018-01-02T11:56:35.906Z,5.60
2018-01-02T11:59:02.628Z,5.60
2018-01-02T12:01:29.349Z,5.60
2018-01-02T12:03:56.023Z,5.80
2018-01-02T12:06:22.681Z,6.00
2018-01-02T12:08:49.374Z,6.00
2018-01-02T12:11:16.036Z,6.10
2018-01-02T12:13:42.720Z,6.20
2018-01-02T12:16:09.437Z,6.30
2018-01-02T12:18:36.120Z,6.40
2018-01-02T12:21:03.531Z,6.50
2018-01-02T12:23:30.556Z,6.50
2018-01-02T12:25:57.577Z,6.60
2018-01-02T12:28:24.247Z,6.40
2018-01-02T12:30:50.952Z,6.70
2018-01-02T12:33:17.642Z,6.90
2018-01-02T12:35:44.309Z,7.00
2018-01-02T12:38:11.789Z,7.10
2018-01-02T12:40:38.502Z,7.30
2018-01-02T12:43:05.162Z,7.40
2018-01-02T12:45:31.856Z,7.60
2018-01-02T12:47:59.347Z,7.60
2018-01-02T12:50:26.090Z,7.60
2018-01-02T12:52:52.741Z,7.40
2018-01-02T12:55:19.437Z,7.40
2018-01-02T12:57:47.044Z,7.30
2018-01-02T13:00:14.226Z,7.20
2018-01-02T13:02:40.869Z,7.00
2018-01-02T13:05:07.529Z,6.80
2018-01-02T13:07:34.261Z,6.70
2018-01-02T13:10:00.954Z,6.70
2018-01-02T13:12:27.605Z,6.60
2018-01-02T13:14:54.290Z,6.60
2018-01-02T13:17:20.973Z,6.70
2018-01-02T13:19:47.625Z,6.80
2018-01-02T13:22:14.314Z,6.70
2018-01-02T13:24:41.010Z,6.60
2018-01-02T13:27:07.663Z,6.30
2018-01-02T13:29:34.382Z,6.20
2018-01-02T13:32:01.782Z,6.10
2018-01-02T13:34:28.527Z,6.10
2018-01-02T13:36:55.207Z,6.00
2018-01-02T13:39:21.861Z,5.90
2018-01-02T13:41:50.204Z,5.60
2018-01-02T13:44:16.852Z,5.60
2018-01-02T13:46:43.510Z,5.30
2018-01-02T13:49:10.226Z,5.20
2018-01-02T13:51:36.899Z,5.30
2018-01-02T13:54:03.582Z,5.40
2018-01-02T13:56:30.241Z,5.30
2018-01-02T13:58:57.007Z,5.30
2018-01-02T14:01:23.669Z,5.30
2018-01-02T14:03:50.398Z,5.40
2018-01-02T14:06:17.102Z,5.30
2018-01-02T14:08:43.792Z,5.30
2018-01-02T14:11:10.645Z,5.20
2018-01-02T14:13:37.317Z,5.20
2018-01-02T14:16:04.739Z,5.30
2018-01-02T14:18:31.449Z,5.20
2018-01-02T14:20:58.121Z,5.20
2018-01-02T14:23:24.796Z,5.00
2018-01-02T14:25:52.207Z,5.00
2018-01-02T14:28:18.859Z,5.00
2018-01-02T14:30:45.553Z,4.90
2018-01-02T14:33:12.975Z,4.90
2018-01-02T14:35:39.641Z,4.90
2018-01-02T14:38:06.370Z,4.80
2018-01-02T14:40:33.064Z,4.90
2018-01-02T14:42:59.742Z,4.80
2018-01-02T14:45:26.393Z,4.70
2018-01-02T14:47:53.053Z,4.70
2018-01-02T14:50:19.768Z,4.60
2018-01-02T14:52:46.422Z,4.60
2018-01-02T14:55:13.068Z,4.60
2018-01-02T14:57:39.810Z,4.50
2018-01-02T15:00:06.525Z,4.50
2018-01-02T15:02:33.250Z,4.40
2018-01-02T15:04:59.917Z,4.30
2018-01-02T15:07:26.614Z,4.30
2018-01-02T15:09:54.074Z,4.20
2018-01-02T15:12:21.531Z,4.10
2018-01-02T15:14:48.915Z,4.00
2018-01-02T15:17:15.662Z,4.00
2018-01-02T15:19:42.336Z,3.90
2018-01-02T15:22:09.076Z,3.80
2018-01-02T15:24:35.748Z,3.70
2018-01-02T15:27:02.398Z,3.70
2018-01-02T15:29:29.058Z,3.60
2018-01-02T15:31:56.497Z,3.50
2018-01-02T15:34:23.824Z,3.50
2018-01-02T15:36:50.584Z,3.40
2018-01-02T15:39:18.043Z,3.40
2018-01-02T15:41:44.722Z,3.30
2018-01-02T15:44:11.385Z,3.20
2018-01-02T15:46:39.039Z,3.20
2018-01-02T15:49:06.435Z,3.00
2018-01-02T15:51:33.180Z,3.00
2018-01-02T15:53:59.899Z,2.80
2018-01-02T15:56:26.550Z,2.80
2018-01-02T15:58:53.207Z,2.80
2018-01-02T16:01:19.909Z,2.70
2018-01-02T16:03:47.334Z,2.50
2018-01-02T16:06:14.993Z,2.50
2018-01-02T16:08:41.666Z,2.50
2018-01-02T16:11:09.052Z,2.40
2018-01-02T16:13:35.706Z,2.40
2018-01-02T16:16:02.782Z,2.40
2018-01-02T16:18:29.440Z,2.30
2018-01-02T16:20:56.080Z,2.20
2018-01-02T16:23:22.758Z,2.10
2018-01-02T16:25:50.145Z,2.00
2018-01-02T16:28:16.818Z,2.00
2018-01-02T16:30:43.597Z,2.00
2018-01-02T16:33:10.997Z,1.90
2018-01-02T16:35:37.665Z,1.90
2018-01-02T16:38:04.332Z,1.80
2018-01-02T16:40:30.981Z,1.80
2018-01-02T16:42:57.654Z,1.80
2018-01-02T16:45:24.350Z,1.80
2018-01-02T16:47:51.011Z,1.70
2018-01-02T16:50:18.490Z,1.60
2018-01-02T16:52:45.180Z,1.60
2018-01-02T16:55:12.611Z,1.50
2018-01-02T16:57:39.277Z,1.50
2018-01-02T17:00:06.845Z,1.50
2018-01-02T17:02:33.499Z,1.40
2018-01-02T17:05:00.188Z,1.40
2018-01-02T17:07:27.592Z,1.30
2018-01-02T17:09:54.238Z,1.30
2018-01-02T17:12:21.284Z,1.30
2018-01-02T17:14:47.953Z,1.30
2018-01-02T17:17:14.750Z,1.30
2018-01-02T17:19:41.380Z,1.20
2018-01-02T17:22:08.082Z,1.20
2018-01-02T17:24:34.758Z,1.10
2018-01-02T17:27:01.404Z,1.10
2018-01-02T17:29:28.093Z,1.10
2018-01-02T17:31:54.737Z,1.10
2018-01-02T17:34:21.681Z,1.10
2018-01-02T17:36:48.389Z,1.20
2018-01-02T17:39:15.090Z,1.30
2018-01-02T17:41:41.737Z,1.20
2018-01-02T17:44:08.411Z,1.20
2018-01-02T17:46:35.064Z,1.10
2018-01-02T17:49:01.730Z,1.10
2018-01-02T17:51:28.391Z,1.10
2018-01-02T17:53:55.080Z,1.10
2018-01-02T17:56:21.748Z,1.10
2018-01-02T17:58:48.428Z,1.00
2018-01-02T18:01:15.110Z,1.00
2018-01-02T18:03:41.783Z,1.00
2018-01-02T18:06:08.498Z,1.10
2018-01-02T18:08:35.178Z,1.00
2018-01-02T18:11:01.856Z,1.00
2018-01-02T18:13:29.340Z,1.00
2018-01-02T18:15:56.011Z,0.90
2018-01-02T18:18:22.690Z,0.90
2018-01-02T18:20:49.367Z,0.90
2018-01-02T18:23:16.863Z,0.80
2018-01-02T18:25:43.828Z,0.80
2018-01-02T18:28:11.541Z,0.80
2018-01-02T18:30:39.367Z,0.70
2018-01-02T18:33:06.056Z,0.80
2018-01-02T18:35:33.449Z,0.70
2018-01-02T18:38:00.092Z,0.70
2018-01-02T18:40:26.801Z,0.70
2018-01-02T18:42:53.457Z,0.60
2018-01-02T18:45:20.989Z,0.60
2018-01-02T18:47:48.474Z,0.60
2018-01-02T18:50:15.877Z,0.60
2018-01-02T18:52:42.553Z,0.60
2018-01-02T18:55:10.014Z,0.50
2018-01-02T18:57:37.432Z,0.60
2018-01-02T19:00:04.138Z,0.50
2018-01-02T19:02:30.848Z,0.50
2018-01-02T19:04:58.399Z,0.50
2018-01-02T19:07:25.092Z,0.40
2018-01-02T19:09:51.873Z,0.40
2018-01-02T19:12:19.482Z,0.40
2018-01-02T19:14:46.933Z,0.40
2018-01-02T19:17:14.373Z,0.40
2018-01-02T19:19:41.323Z,0.40
2018-01-02T19:22:08.065Z,0.40
2018-01-02T19:24:34.810Z,0.40
2018-01-02T19:27:01.589Z,0.40
2018-01-02T19:29:28.973Z,0.30
2018-01-02T19:31:55.669Z,0.30
2018-01-02T19:34:22.350Z,0.30
2018-01-02T19:36:49.093Z,0.20
2018-01-02T19:39:16.514Z,0.20
2018-01-02T19:41:44.046Z,0.20
2018-01-02T19:44:10.739Z,0.20
2018-01-02T19:46:38.158Z,0.10
2018-01-02T19:49:05.543Z,0.10
2018-01-02T19:51:32.269Z,0.00
2018-01-02T19:53:58.961Z,0.10
2018-01-02T19:56:26.626Z,0.20
2018-01-02T19:58:53.317Z,0.10
2018-01-02T20:01:19.960Z,0.20
2018-01-02T20:03:46.691Z,0.20
2018-01-02T20:06:13.353Z,0.30
2018-01-02T20:08:40.759Z,0.30
2018-01-02T20:11:08.185Z,0.30
2018-01-02T20:13:35.017Z,0.30
2018-01-02T20:16:01.696Z,0.30
2018-01-02T20:18:35.102Z,0.40
2018-01-02T20:21:02.519Z,0.30
2018-01-02T20:23:29.483Z,0.30
2018-01-02T20:25:57.019Z,0.20
2018-01-02T20:28:23.721Z,0.20
2018-01-02T20:30:50.397Z,0.20
2018-01-02T20:33:17.087Z,0.20
2018-01-02T20:35:44.504Z,0.20
2018-01-02T20:38:11.193Z,0.20
2018-01-02T20:40:38.700Z,0.10
2018-01-02T20:43:05.358Z,0.10
2018-01-02T20:45:32.087Z,0.10
2018-01-02T20:47:58.838Z,0.00
2018-01-02T20:50:25.477Z,0.00
2018-01-02T20:52:52.213Z,-0.10
2018-01-02T20:55:18.996Z,-0.10
2018-01-02T20:57:45.671Z,0.00
2018-01-02T21:00:13.258Z,0.00
2018-01-02T21:02:39.977Z,0.00
2018-01-02T21:05:07.555Z,-0.10
2018-01-02T21:07:34.184Z,-0.10
2018-01-02T21:10:01.627Z,-0.20
2018-01-02T21:12:28.979Z,-0.20
2018-01-02T21:14:55.635Z,-0.20
2018-01-02T21:17:23.425Z,-0.30
2018-01-02T21:19:50.072Z,-0.30
2018-01-02T21:22:16.808Z,-0.30
2018-01-02T21:24:44.260Z,-0.20
2018-01-02T21:27:10.974Z,-0.20
2018-01-02T21:29:38.404Z,-0.20
2018-01-02T21:32:05.112Z,-0.30
2018-01-02T21:34:32.522Z,-0.20
2018-01-02T21:36:59.186Z,-0.20
2018-01-02T21:39:25.877Z,-0.20
2018-01-02T21:41:52.528Z,-0.20
2018-01-02T21:44:19.218Z,-0.30
2018-01-02T21:46:45.899Z,-0.30
2018-01-02T21:49:12.537Z,-0.40
2018-01-02T21:51:39.203Z,-0.50
2018-01-02T21:54:05.890Z,-0.50
2018-01-02T21:56:32.593Z,-0.40
2018-01-02T21:58:59.260Z,-0.40
2018-01-02T22:01:25.932Z,-0.40
2018-01-02T22:03:53.348Z,-0.40
2018-01-02T22:06:20.064Z,-0.50
2018-01-02T22:08:46.746Z,-0.50
2018-01-02T22:11:13.414Z,-0.40
2018-01-02T22:13:40.077Z,-0.50
2018-01-02T22:16:07.535Z,-0.60
2018-01-02T22:18:34.917Z,-0.70
2018-01-02T22:21:01.593Z,-0.70
2018-01-02T22:23:28.245Z,-0.70
2018-01-02T22:25:54.898Z,-0.70
2018-01-02T22:28:21.611Z,-0.80
2018-01-02T22:30:48.769Z,-0.80
2018-01-02T22:33:15.515Z,-0.90
2018-01-02T22:35:42.236Z,-0.80
2018-01-02T22:38:09.066Z,-0.90
2018-01-02T22:40:36.447Z,-0.80
2018-01-02T22:43:03.088Z,-0.80
2018-01-02T22:45:29.761Z,-0.80
2018-01-02T22:47:56.499Z,-0.80
2018-01-02T22:50:23.344Z,-0.70
2018-01-02T22:52:50.020Z,-0.80
2018-01-02T22:55:17.475Z,-1.00
2018-01-02T22:57:44.147Z,-1.00
2018-01-02T23:00:10.933Z,-1.00
2018-01-02T23:02:37.617Z,-0.90
2018-01-02T23:05:05.025Z,-0.90
2018-01-02T23:07:31.682Z,-1.00
2018-01-02T23:09:58.489Z,-0.90
2018-01-02T23:12:25.226Z,-0.90
2018-01-02T23:14:51.921Z,-1.00
2018-01-02T23:17:18.699Z,-1.10
2018-01-02T23:19:46.078Z,-1.00
2018-01-02T23:22:12.884Z,-1.00
2018-01-02T23:24:39.672Z,-1.10
2018-01-02T23:27:06.408Z,-1.00
2018-01-02T23:29:33.210Z,-1.00
2018-01-02T23:31:59.967Z,-1.10
2018-01-02T23:34:26.648Z,-1.00
2018-01-02T23:36:53.309Z,-1.00
2018-01-02T23:39:19.973Z,-1.00
2018-01-02T23:41:46.617Z,-1.00
2018-01-02T23:44:13.256Z,-1.10
2018-01-02T23:46:40.798Z,-1.10
2018-01-02T23:49:07.449Z,-1.20
2018-01-02T23:51:34.171Z,-1.20
2018-01-02T23:54:00.838Z,-1.20
2018-01-02T23:56:27.466Z,-1.30
2018-01-02T23:58:54.138Z,-1.10
